sensor_id;sensor_type;location;lat;lon;timestamp;pressure;altitude;pressure_sealevel;temperature;humidity
64053;BME280;50299;49.524;8.536;2023-03-18T00:00:40;100046.03;;;9.96;57.70
64053;BME280;50299;49.524;8.536;2023-03-18T00:03:06;100042.59;;;9.99;60.55
64053;BME280;50299;49.524;8.536;2023-03-18T00:05:33;100046.13;;;10.08;60.82
64053;BME280;50299;49.524;8.536;2023-03-18T00:08:01;100036.03;;;10.12;59.13
64053;BME280;50299;49.524;8.536;2023-03-18T00:10:28;100040.84;;;10.15;61.57
64053;BME280;50299;49.524;8.536;2023-03-18T00:12:54;100047.41;;;10.10;60.99
64053;BME280;50299;49.524;8.536;2023-03-18T00:15:23;100048.34;;;10.15;60.44
64053;BME280;50299;49.524;8.536;2023-03-18T00:17:50;100036.84;;;10.13;59.60
64053;BME280;50299;49.524;8.536;2023-03-18T00:20:17;100047.75;;;10.09;59.29
64053;BME280;50299;49.524;8.536;2023-03-18T00:22:44;100055.28;;;10.00;52.87
64053;BME280;50299;49.524;8.536;2023-03-18T00:25:13;100057.81;;;9.84;55.00
64053;BME280;50299;49.524;8.536;2023-03-18T00:27:39;100058.97;;;9.83;56.85
64053;BME280;50299;49.524;8.536;2023-03-18T00:30:07;100056.50;;;9.81;61.60
64053;BME280;50299;49.524;8.536;2023-03-18T00:32:34;100055.66;;;9.90;60.36
64053;BME280;50299;49.524;8.536;2023-03-18T00:35:01;100062.31;;;9.89;59.46
64053;BME280;50299;49.524;8.536;2023-03-18T00:37:27;100071.06;;;9.91;60.17
64053;BME280;50299;49.524;8.536;2023-03-18T00:39:58;100069.47;;;9.90;58.86
64053;BME280;50299;49.524;8.536;2023-03-18T00:42:32;100073.41;;;9.80;54.88
64053;BME280;50299;49.524;8.536;2023-03-18T00:45:06;100072.47;;;9.67;52.58
64053;BME280;50299;49.524;8.536;2023-03-18T00:47:33;100076.91;;;9.59;59.10
64053;BME280;50299;49.524;8.536;2023-03-18T00:50:00;100080.97;;;9.53;55.17
64053;BME280;50299;49.524;8.536;2023-03-18T00:52:28;100072.84;;;9.57;56.30
64053;BME280;50299;49.524;8.536;2023-03-18T00:54:57;100077.69;;;9.60;58.85
64053;BME280;50299;49.524;8.536;2023-03-18T00:57:23;100070.38;;;9.64;60.73
64053;BME280;50299;49.524;8.536;2023-03-18T00:59:50;100069.22;;;9.65;57.12
64053;BME280;50299;49.524;8.536;2023-03-18T01:02:17;100074.56;;;9.70;60.59
64053;BME280;50299;49.524;8.536;2023-03-18T01:04:43;100076.69;;;9.73;59.08
64053;BME280;50299;49.524;8.536;2023-03-18T01:07:10;100074.75;;;9.74;61.01
64053;BME280;50299;49.524;8.536;2023-03-18T01:09:37;100078.66;;;9.73;60.99
64053;BME280;50299;49.524;8.536;2023-03-18T01:12:09;100076.19;;;9.71;58.59
64053;BME280;50299;49.524;8.536;2023-03-18T01:14:37;100073.13;;;9.64;55.46
64053;BME280;50299;49.524;8.536;2023-03-18T01:17:05;100080.13;;;9.61;60.10
64053;BME280;50299;49.524;8.536;2023-03-18T01:19:33;100076.25;;;9.54;56.70
64053;BME280;50299;49.524;8.536;2023-03-18T01:22:00;100077.44;;;9.44;54.92
64053;BME280;50299;49.524;8.536;2023-03-18T01:24:27;100076.31;;;9.36;54.58
64053;BME280;50299;49.524;8.536;2023-03-18T01:26:54;100065.47;;;9.31;57.50
64053;BME280;50299;49.524;8.536;2023-03-18T01:29:20;100074.72;;;9.35;59.45
64053;BME280;50299;49.524;8.536;2023-03-18T01:31:49;100071.91;;;9.44;56.62
64053;BME280;50299;49.524;8.536;2023-03-18T01:34:17;100072.38;;;9.55;58.80
64053;BME280;50299;49.524;8.536;2023-03-18T01:36:43;100072.19;;;9.60;62.22
64053;BME280;50299;49.524;8.536;2023-03-18T01:39:11;100071.84;;;9.61;56.50
64053;BME280;50299;49.524;8.536;2023-03-18T01:41:37;100082.72;;;9.67;64.95
64053;BME280;50299;49.524;8.536;2023-03-18T01:44:17;100080.41;;;9.77;60.11
64053;BME280;50299;49.524;8.536;2023-03-18T01:46:48;100075.84;;;9.81;59.98
64053;BME280;50299;49.524;8.536;2023-03-18T01:49:47;100071.19;;;9.65;56.33
64053;BME280;50299;49.524;8.536;2023-03-18T01:52:22;100076.03;;;9.76;64.83
64053;BME280;50299;49.524;8.536;2023-03-18T01:54:58;100078.41;;;9.86;60.51
64053;BME280;50299;49.524;8.536;2023-03-18T01:57:32;100074.84;;;9.86;59.42
64053;BME280;50299;49.524;8.536;2023-03-18T02:00:00;100069.50;;;9.81;61.60
64053;BME280;50299;49.524;8.536;2023-03-18T02:02:29;100072.47;;;9.76;58.00
64053;BME280;50299;49.524;8.536;2023-03-18T02:04:58;100058.53;;;9.63;56.01
64053;BME280;50299;49.524;8.536;2023-03-18T02:07:31;100041.69;;;9.56;51.92
64053;BME280;50299;49.524;8.536;2023-03-18T02:10:05;100045.44;;;9.52;53.74
64053;BME280;50299;49.524;8.536;2023-03-18T02:12:35;100037.19;;;9.43;52.87
64053;BME280;50299;49.524;8.536;2023-03-18T02:15:07;100041.28;;;9.37;54.95
64053;BME280;50299;49.524;8.536;2023-03-18T02:17:41;100052.00;;;9.38;55.10
64053;BME280;50299;49.524;8.536;2023-03-18T02:20:14;100053.31;;;9.32;54.64
64053;BME280;50299;49.524;8.536;2023-03-18T02:22:49;100049.09;;;9.35;58.58
64053;BME280;50299;49.524;8.536;2023-03-18T02:27:54;100054.06;;;9.42;59.89
64053;BME280;50299;49.524;8.536;2023-03-18T02:30:26;100063.31;;;9.46;58.74
64053;BME280;50299;49.524;8.536;2023-03-18T02:32:56;100066.66;;;9.60;59.83
64053;BME280;50299;49.524;8.536;2023-03-18T02:35:25;100060.81;;;9.61;58.54
64053;BME280;50299;49.524;8.536;2023-03-18T02:37:53;100072.34;;;9.63;58.88
64053;BME280;50299;49.524;8.536;2023-03-18T02:40:23;100079.13;;;9.66;60.61
64053;BME280;50299;49.524;8.536;2023-03-18T02:42:50;100073.59;;;9.66;58.35
64053;BME280;50299;49.524;8.536;2023-03-18T02:45:54;100067.28;;;9.66;57.50
64053;BME280;50299;49.524;8.536;2023-03-18T02:48:29;100065.81;;;9.68;59.93
64053;BME280;50299;49.524;8.536;2023-03-18T02:50:58;100064.00;;;9.72;61.11
64053;BME280;50299;49.524;8.536;2023-03-18T02:53:24;100061.44;;;9.67;54.20
64053;BME280;50299;49.524;8.536;2023-03-18T02:55:51;100064.50;;;9.36;54.04
64053;BME280;50299;49.524;8.536;2023-03-18T02:58:18;100067.66;;;9.17;54.13
64053;BME280;50299;49.524;8.536;2023-03-18T03:00:46;100079.31;;;9.14;55.23
64053;BME280;50299;49.524;8.536;2023-03-18T03:03:12;100069.56;;;9.17;54.76
64053;BME280;50299;49.524;8.536;2023-03-18T03:05:39;100069.56;;;9.17;55.12
64053;BME280;50299;49.524;8.536;2023-03-18T03:08:06;100066.31;;;9.23;56.02
64053;BME280;50299;49.524;8.536;2023-03-18T03:10:32;100075.38;;;9.32;55.85
64053;BME280;50299;49.524;8.536;2023-03-18T03:12:59;100080.69;;;9.37;55.72
64053;BME280;50299;49.524;8.536;2023-03-18T03:15:26;100084.75;;;9.40;56.70
64053;BME280;50299;49.524;8.536;2023-03-18T03:17:53;100080.69;;;9.46;59.17
64053;BME280;50299;49.524;8.536;2023-03-18T03:20:21;100083.06;;;9.56;59.50
64053;BME280;50299;49.524;8.536;2023-03-18T03:22:48;100090.84;;;9.63;58.88
64053;BME280;50299;49.524;8.536;2023-03-18T03:25:15;100089.34;;;9.74;59.12
64053;BME280;50299;49.524;8.536;2023-03-18T03:27:42;100092.75;;;9.80;59.64
64053;BME280;50299;49.524;8.536;2023-03-18T03:30:11;100087.56;;;9.70;53.61
64053;BME280;50299;49.524;8.536;2023-03-18T03:32:38;100094.06;;;9.65;55.90
64053;BME280;50299;49.524;8.536;2023-03-18T03:35:05;100081.97;;;9.49;50.35
64053;BME280;50299;49.524;8.536;2023-03-18T03:37:33;100082.22;;;9.26;53.34
64053;BME280;50299;49.524;8.536;2023-03-18T03:40:01;100087.72;;;9.26;54.07
64053;BME280;50299;49.524;8.536;2023-03-18T03:42:27;100094.38;;;9.17;52.62
64053;BME280;50299;49.524;8.536;2023-03-18T03:44:54;100089.50;;;9.31;53.16
64053;BME280;50299;49.524;8.536;2023-03-18T03:47:21;100091.31;;;9.18;52.89
64053;BME280;50299;49.524;8.536;2023-03-18T03:49:47;100095.69;;;9.19;52.24
64053;BME280;50299;49.524;8.536;2023-03-18T03:52:14;100096.66;;;9.23;55.28
64053;BME280;50299;49.524;8.536;2023-03-18T03:54:40;100103.63;;;9.29;54.41
64053;BME280;50299;49.524;8.536;2023-03-18T03:57:07;100106.88;;;9.23;51.83
64053;BME280;50299;49.524;8.536;2023-03-18T03:59:34;100106.09;;;9.13;51.82
64053;BME280;50299;49.524;8.536;2023-03-18T04:02:00;100105.13;;;9.09;54.45
64053;BME280;50299;49.524;8.536;2023-03-18T04:04:27;100103.34;;;9.13;56.96
64053;BME280;50299;49.524;8.536;2023-03-18T04:06:54;100098.09;;;9.21;54.73
64053;BME280;50299;49.524;8.536;2023-03-18T04:09:21;100104.63;;;9.16;50.97
64053;BME280;50299;49.524;8.536;2023-03-18T04:11:50;100097.97;;;9.08;51.41
64053;BME280;50299;49.524;8.536;2023-03-18T04:14:17;100097.84;;;8.96;52.71
64053;BME280;50299;49.524;8.536;2023-03-18T04:16:44;100103.34;;;8.96;52.68
64053;BME280;50299;49.524;8.536;2023-03-18T04:19:12;100110.50;;;9.06;56.30
64053;BME280;50299;49.524;8.536;2023-03-18T04:21:38;100105.00;;;8.97;54.71
64053;BME280;50299;49.524;8.536;2023-03-18T04:24:07;100101.56;;;8.92;52.98
64053;BME280;50299;49.524;8.536;2023-03-18T04:26:33;100105.81;;;8.98;55.91
64053;BME280;50299;49.524;8.536;2023-03-18T04:29:00;100099.78;;;8.96;53.23
64053;BME280;50299;49.524;8.536;2023-03-18T04:31:26;100110.19;;;8.90;50.69
64053;BME280;50299;49.524;8.536;2023-03-18T04:33:53;100101.44;;;8.79;52.49
64053;BME280;50299;49.524;8.536;2023-03-18T04:36:20;100108.59;;;8.80;52.11
64053;BME280;50299;49.524;8.536;2023-03-18T04:38:47;100101.78;;;8.69;52.31
64053;BME280;50299;49.524;8.536;2023-03-18T04:41:13;100111.97;;;8.51;52.11
64053;BME280;50299;49.524;8.536;2023-03-18T04:43:40;100102.91;;;8.68;51.99
64053;BME280;50299;49.524;8.536;2023-03-18T04:46:07;100113.59;;;8.70;51.73
64053;BME280;50299;49.524;8.536;2023-03-18T04:48:34;100120.25;;;8.77;55.74
64053;BME280;50299;49.524;8.536;2023-03-18T04:51:00;100111.00;;;8.65;53.97
64053;BME280;50299;49.524;8.536;2023-03-18T04:53:27;100115.53;;;8.60;52.34
64053;BME280;50299;49.524;8.536;2023-03-18T04:55:54;100113.22;;;8.62;59.27
64053;BME280;50299;49.524;8.536;2023-03-18T04:58:22;100110.38;;;8.68;56.05
64053;BME280;50299;49.524;8.536;2023-03-18T05:00:48;100111.97;;;8.69;58.23
64053;BME280;50299;49.524;8.536;2023-03-18T05:03:15;100114.25;;;8.67;56.67
64053;BME280;50299;49.524;8.536;2023-03-18T05:05:42;100110.31;;;8.59;57.72
64053;BME280;50299;49.524;8.536;2023-03-18T05:08:09;100105.59;;;8.51;59.16
64053;BME280;50299;49.524;8.536;2023-03-18T05:10:36;100109.69;;;8.53;58.68
64053;BME280;50299;49.524;8.536;2023-03-18T05:13:05;100109.84;;;8.57;62.26
64053;BME280;50299;49.524;8.536;2023-03-18T05:15:32;100113.56;;;8.61;60.15
64053;BME280;50299;49.524;8.536;2023-03-18T05:18:00;100109.16;;;8.43;56.05
64053;BME280;50299;49.524;8.536;2023-03-18T05:20:26;100119.38;;;8.42;55.87
64053;BME280;50299;49.524;8.536;2023-03-18T05:22:53;100123.91;;;8.38;53.91
64053;BME280;50299;49.524;8.536;2023-03-18T05:25:20;100124.53;;;8.26;52.08
64053;BME280;50299;49.524;8.536;2023-03-18T05:27:46;100124.53;;;8.26;55.70
64053;BME280;50299;49.524;8.536;2023-03-18T05:30:14;100119.81;;;8.18;52.01
64053;BME280;50299;49.524;8.536;2023-03-18T05:32:41;100127.44;;;8.21;53.67
64053;BME280;50299;49.524;8.536;2023-03-18T05:35:09;100127.63;;;8.33;56.39
64053;BME280;50299;49.524;8.536;2023-03-18T05:37:36;100128.31;;;8.39;54.74
64053;BME280;50299;49.524;8.536;2023-03-18T05:40:04;100133.47;;;8.32;53.75
64053;BME280;50299;49.524;8.536;2023-03-18T05:42:35;100133.31;;;8.37;53.19
64053;BME280;50299;49.524;8.536;2023-03-18T05:45:20;100132.69;;;8.40;54.06
64053;BME280;50299;49.524;8.536;2023-03-18T05:47:47;100130.09;;;8.35;52.54
64053;BME280;50299;49.524;8.536;2023-03-18T05:50:13;100133.50;;;8.41;54.07
64053;BME280;50299;49.524;8.536;2023-03-18T05:52:39;100128.44;;;8.25;52.32
64053;BME280;50299;49.524;8.536;2023-03-18T05:55:06;100130.03;;;8.26;53.61
64053;BME280;50299;49.524;8.536;2023-03-18T05:57:37;100131.03;;;8.30;54.61
64053;BME280;50299;49.524;8.536;2023-03-18T06:00:04;100132.31;;;8.24;51.52
64053;BME280;50299;49.524;8.536;2023-03-18T06:02:31;100137.22;;;8.36;52.67
64053;BME280;50299;49.524;8.536;2023-03-18T06:04:58;100133.97;;;8.43;53.64
64053;BME280;50299;49.524;8.536;2023-03-18T06:07:25;100143.88;;;8.44;53.06
64053;BME280;50299;49.524;8.536;2023-03-18T06:09:53;100146.97;;;8.59;51.93
64053;BME280;50299;49.524;8.536;2023-03-18T06:12:19;100141.13;;;8.52;51.05
64053;BME280;50299;49.524;8.536;2023-03-18T06:14:49;100143.53;;;8.54;51.54
64053;BME280;50299;49.524;8.536;2023-03-18T06:17:19;100145.69;;;8.66;49.56
64053;BME280;50299;49.524;8.536;2023-03-18T06:19:46;100146.84;;;8.82;51.71
64053;BME280;50299;49.524;8.536;2023-03-18T06:22:16;100151.19;;;9.00;50.31
64053;BME280;50299;49.524;8.536;2023-03-18T06:24:45;100152.31;;;9.25;58.11
64053;BME280;50299;49.524;8.536;2023-03-18T06:27:15;100151.31;;;9.38;56.81
64053;BME280;50299;49.524;8.536;2023-03-18T06:29:44;100161.16;;;9.57;63.51
64053;BME280;50299;49.524;8.536;2023-03-18T06:32:11;100158.19;;;9.79;52.21
64053;BME280;50299;49.524;8.536;2023-03-18T06:34:40;100160.91;;;9.88;51.70
64053;BME280;50299;49.524;8.536;2023-03-18T06:37:08;100158.00;;;9.84;53.45
64053;BME280;50299;49.524;8.536;2023-03-18T06:39:35;100162.75;;;9.67;52.24
64053;BME280;50299;49.524;8.536;2023-03-18T06:42:06;100156.75;;;9.73;55.59
64053;BME280;50299;49.524;8.536;2023-03-18T06:44:32;100149.22;;;9.82;53.91
64053;BME280;50299;49.524;8.536;2023-03-18T06:47:02;100151.66;;;9.84;52.37
64053;BME280;50299;49.524;8.536;2023-03-18T06:49:28;100154.13;;;9.77;51.45
64053;BME280;50299;49.524;8.536;2023-03-18T06:51:58;100160.31;;;9.65;48.09
64053;BME280;50299;49.524;8.536;2023-03-18T06:54:25;100158.34;;;9.74;49.98
64053;BME280;50299;49.524;8.536;2023-03-18T06:56:51;100157.03;;;9.80;46.98
64053;BME280;50299;49.524;8.536;2023-03-18T06:59:18;100167.38;;;9.92;51.32
64053;BME280;50299;49.524;8.536;2023-03-18T07:01:46;100164.09;;;9.99;51.15
64053;BME280;50299;49.524;8.536;2023-03-18T07:04:14;100166.69;;;10.33;46.17
64053;BME280;50299;49.524;8.536;2023-03-18T07:06:41;100173.38;;;10.53;48.30
64053;BME280;50299;49.524;8.536;2023-03-18T07:09:07;100182.03;;;10.94;50.27
64053;BME280;50299;49.524;8.536;2023-03-18T07:11:36;100173.44;;;10.95;45.97
64053;BME280;50299;49.524;8.536;2023-03-18T07:14:05;100176.63;;;11.18;49.11
64053;BME280;50299;49.524;8.536;2023-03-18T07:16:33;100179.66;;;11.25;45.97
64053;BME280;50299;49.524;8.536;2023-03-18T07:18:59;100177.72;;;11.05;46.36
64053;BME280;50299;49.524;8.536;2023-03-18T07:21:27;100188.94;;;10.88;42.78
64053;BME280;50299;49.524;8.536;2023-03-18T07:23:54;100187.81;;;10.59;43.71
64053;BME280;50299;49.524;8.536;2023-03-18T07:26:21;100184.88;;;10.85;45.20
64053;BME280;50299;49.524;8.536;2023-03-18T07:28:50;100193.97;;;10.85;45.45
64053;BME280;50299;49.524;8.536;2023-03-18T07:31:21;100188.34;;;10.82;44.12
64053;BME280;50299;49.524;8.536;2023-03-18T07:33:48;100190.53;;;11.09;42.92
64053;BME280;50299;49.524;8.536;2023-03-18T07:36:14;100180.09;;;11.15;43.12
64053;BME280;50299;49.524;8.536;2023-03-18T07:38:41;100188.94;;;11.42;46.82
64053;BME280;50299;49.524;8.536;2023-03-18T07:41:11;100188.50;;;11.85;44.97
64053;BME280;50299;49.524;8.536;2023-03-18T07:43:38;100181.69;;;12.19;41.32
64053;BME280;50299;49.524;8.536;2023-03-18T07:46:06;100185.50;;;12.51;42.33
64053;BME280;50299;49.524;8.536;2023-03-18T07:48:32;100185.44;;;12.88;41.62
64053;BME280;50299;49.524;8.536;2023-03-18T07:51:05;100195.50;;;13.21;40.49
64053;BME280;50299;49.524;8.536;2023-03-18T07:53:32;100196.19;;;13.46;43.51
64053;BME280;50299;49.524;8.536;2023-03-18T07:55:59;100189.84;;;13.17;37.92
64053;BME280;50299;49.524;8.536;2023-03-18T07:58:28;100192.38;;;13.22;43.53
64053;BME280;50299;49.524;8.536;2023-03-18T08:00:55;100186.16;;;13.13;39.91
64053;BME280;50299;49.524;8.536;2023-03-18T08:03:22;100183.97;;;12.66;39.40
64053;BME280;50299;49.524;8.536;2023-03-18T08:05:49;100189.19;;;12.43;43.66
64053;BME280;50299;49.524;8.536;2023-03-18T08:08:16;100188.16;;;12.36;40.35
64053;BME280;50299;49.524;8.536;2023-03-18T08:10:43;100195.56;;;12.07;39.11
64053;BME280;50299;49.524;8.536;2023-03-18T08:13:15;100198.56;;;12.14;40.05
64053;BME280;50299;49.524;8.536;2023-03-18T08:15:42;100198.31;;;12.19;39.33
64053;BME280;50299;49.524;8.536;2023-03-18T08:18:08;100203.97;;;12.11;41.62
64053;BME280;50299;49.524;8.536;2023-03-18T08:20:35;100202.00;;;12.11;41.70
64053;BME280;50299;49.524;8.536;2023-03-18T08:23:01;100203.84;;;11.95;39.68
64053;BME280;50299;49.524;8.536;2023-03-18T08:25:28;100205.22;;;11.76;39.13
64053;BME280;50299;49.524;8.536;2023-03-18T08:27:55;100205.31;;;11.80;39.60
64053;BME280;50299;49.524;8.536;2023-03-18T08:30:21;100206.03;;;11.89;44.03
64053;BME280;50299;49.524;8.536;2023-03-18T08:32:50;100208.94;;;12.66;40.78
64053;BME280;50299;49.524;8.536;2023-03-18T08:35:17;100211.25;;;12.76;38.75
64053;BME280;50299;49.524;8.536;2023-03-18T08:37:46;100214.25;;;13.12;38.23
64053;BME280;50299;49.524;8.536;2023-03-18T08:40:14;100216.16;;;13.64;41.60
64053;BME280;50299;49.524;8.536;2023-03-18T08:42:40;100210.22;;;13.49;35.21
64053;BME280;50299;49.524;8.536;2023-03-18T08:45:07;100200.72;;;13.50;36.80
64053;BME280;50299;49.524;8.536;2023-03-18T08:47:34;100203.97;;;13.84;37.83
64053;BME280;50299;49.524;8.536;2023-03-18T08:50:01;100206.59;;;13.93;38.36
64053;BME280;50299;49.524;8.536;2023-03-18T08:52:28;100199.13;;;13.65;37.58
64053;BME280;50299;49.524;8.536;2023-03-18T08:55:00;100204.81;;;13.28;37.75
64053;BME280;50299;49.524;8.536;2023-03-18T08:57:31;100203.78;;;13.77;40.40
64053;BME280;50299;49.524;8.536;2023-03-18T08:59:58;100214.06;;;13.61;40.58
64053;BME280;50299;49.524;8.536;2023-03-18T09:02:25;100211.44;;;13.96;37.41
64053;BME280;50299;49.524;8.536;2023-03-18T09:04:53;100213.16;;;14.32;35.09
64053;BME280;50299;49.524;8.536;2023-03-18T09:07:23;100200.56;;;14.06;35.72
64053;BME280;50299;49.524;8.536;2023-03-18T09:10:03;100204.59;;;14.57;33.48
64053;BME280;50299;49.524;8.536;2023-03-18T09:12:29;100212.97;;;14.41;35.61
64053;BME280;50299;49.524;8.536;2023-03-18T09:14:56;100210.97;;;14.57;36.43
64053;BME280;50299;49.524;8.536;2023-03-18T09:17:23;100212.19;;;14.95;35.46
64053;BME280;50299;49.524;8.536;2023-03-18T09:20:11;100210.00;;;15.04;35.53
64053;BME280;50299;49.524;8.536;2023-03-18T09:22:39;100204.25;;;15.32;33.05
64053;BME280;50299;49.524;8.536;2023-03-18T09:25:06;100201.88;;;15.34;36.56
64053;BME280;50299;49.524;8.536;2023-03-18T09:27:33;100200.66;;;15.51;34.29
64053;BME280;50299;49.524;8.536;2023-03-18T09:29:59;100197.88;;;15.32;33.94
64053;BME280;50299;49.524;8.536;2023-03-18T09:32:26;100200.66;;;15.51;32.71
64053;BME280;50299;49.524;8.536;2023-03-18T09:34:52;100189.50;;;15.12;32.63
64053;BME280;50299;49.524;8.536;2023-03-18T09:37:19;100186.25;;;14.36;35.39
64053;BME280;50299;49.524;8.536;2023-03-18T09:39:46;100195.63;;;14.83;36.10
64053;BME280;50299;49.524;8.536;2023-03-18T09:44:57;100191.66;;;15.61;33.28
64053;BME280;50299;49.524;8.536;2023-03-18T09:47:43;100191.03;;;15.48;35.56
64053;BME280;50299;49.524;8.536;2023-03-18T09:50:35;100189.16;;;15.75;33.57
64053;BME280;50299;49.524;8.536;2023-03-18T09:53:12;100184.81;;;15.55;31.12
64053;BME280;50299;49.524;8.536;2023-03-18T09:55:52;100180.25;;;14.89;32.61
64053;BME280;50299;49.524;8.536;2023-03-18T09:58:29;100176.72;;;14.72;30.98
64053;BME280;50299;49.524;8.536;2023-03-18T10:01:02;100174.63;;;15.04;35.81
64053;BME280;50299;49.524;8.536;2023-03-18T10:03:33;100173.75;;;15.39;34.66
64053;BME280;50299;49.524;8.536;2023-03-18T10:14:07;100174.25;;;15.45;34.40
64053;BME280;50299;49.524;8.536;2023-03-18T10:16:47;100175.44;;;15.67;34.62
64053;BME280;50299;49.524;8.536;2023-03-18T10:19:16;100172.22;;;15.88;37.93
64053;BME280;50299;49.524;8.536;2023-03-18T10:22:00;100177.75;;;15.84;32.92
64053;BME280;50299;49.524;8.536;2023-03-18T10:30:35;100172.69;;;14.70;32.25
64053;BME280;50299;49.524;8.536;2023-03-18T10:33:07;100168.41;;;15.11;33.25
64053;BME280;50299;49.524;8.536;2023-03-18T10:35:44;100168.53;;;15.80;38.28
64053;BME280;50299;49.524;8.536;2023-03-18T10:38:22;100163.63;;;15.73;30.47
64053;BME280;50299;49.524;8.536;2023-03-18T10:40:50;100161.97;;;16.15;34.27
64053;BME280;50299;49.524;8.536;2023-03-18T10:43:19;100168.59;;;15.84;30.62
64053;BME280;50299;49.524;8.536;2023-03-18T10:45:53;100166.22;;;15.86;31.66
64053;BME280;50299;49.524;8.536;2023-03-18T10:48:39;100173.34;;;16.29;32.96
64053;BME280;50299;49.524;8.536;2023-03-18T10:51:22;100168.97;;;16.05;30.77
64053;BME280;50299;49.524;8.536;2023-03-18T10:54:03;100165.16;;;15.48;34.97
64053;BME280;50299;49.524;8.536;2023-03-18T10:56:34;100172.78;;;15.51;34.36
64053;BME280;50299;49.524;8.536;2023-03-18T10:59:19;100158.38;;;15.68;30.93
64053;BME280;50299;49.524;8.536;2023-03-18T11:04:49;100166.75;;;16.67;35.87
64053;BME280;50299;49.524;8.536;2023-03-18T11:07:26;100164.09;;;17.08;31.18
64053;BME280;50299;49.524;8.536;2023-03-18T11:10:11;100155.72;;;17.42;31.21
64053;BME280;50299;49.524;8.536;2023-03-18T11:12:38;100159.44;;;17.53;34.50
64053;BME280;50299;49.524;8.536;2023-03-18T11:15:10;100155.88;;;16.89;30.85
64053;BME280;50299;49.524;8.536;2023-03-18T11:17:39;100158.25;;;17.20;32.97
64053;BME280;50299;49.524;8.536;2023-03-18T11:22:48;100154.44;;;17.76;32.07
64053;BME280;50299;49.524;8.536;2023-03-18T11:25:22;100157.06;;;18.03;31.25
64053;BME280;50299;49.524;8.536;2023-03-18T11:28:05;100154.22;;;17.51;30.95
64053;BME280;50299;49.524;8.536;2023-03-18T11:30:53;100155.59;;;17.72;36.21
64053;BME280;50299;49.524;8.536;2023-03-18T11:33:58;100153.59;;;18.17;31.24
64053;BME280;50299;49.524;8.536;2023-03-18T11:36:29;100148.84;;;18.21;30.81
64053;BME280;50299;49.524;8.536;2023-03-18T11:39:11;100149.88;;;18.06;28.22
64053;BME280;50299;49.524;8.536;2023-03-18T11:41:52;100146.34;;;17.61;31.99
64053;BME280;50299;49.524;8.536;2023-03-18T11:44:33;100142.97;;;17.89;32.01
64053;BME280;50299;49.524;8.536;2023-03-18T11:47:23;100143.00;;;17.92;30.36
64053;BME280;50299;49.524;8.536;2023-03-18T11:49:51;100138.03;;;18.16;29.33
64053;BME280;50299;49.524;8.536;2023-03-18T11:58:06;100122.56;;;17.07;29.97
64053;BME280;50299;49.524;8.536;2023-03-18T12:00:52;100128.63;;;16.22;28.48
64053;BME280;50299;49.524;8.536;2023-03-18T12:06:22;100124.00;;;16.33;31.60
64053;BME280;50299;49.524;8.536;2023-03-18T12:14:11;100123.22;;;16.36;29.11
64053;BME280;50299;49.524;8.536;2023-03-18T12:17:16;100128.13;;;15.70;30.04
64053;BME280;50299;49.524;8.536;2023-03-18T12:25:08;100111.50;;;16.80;31.86
64053;BME280;50299;49.524;8.536;2023-03-18T12:27:54;100107.03;;;16.19;29.27
64053;BME280;50299;49.524;8.536;2023-03-18T12:30:39;100105.41;;;16.71;32.21
64053;BME280;50299;49.524;8.536;2023-03-18T12:36:17;100107.34;;;16.67;28.93
64053;BME280;50299;49.524;8.536;2023-03-18T12:41:51;100104.66;;;17.08;30.92
64053;BME280;50299;49.524;8.536;2023-03-18T12:46:57;100104.59;;;16.70;29.05
64053;BME280;50299;49.524;8.536;2023-03-18T12:49:33;100102.38;;;16.83;31.30
64053;BME280;50299;49.524;8.536;2023-03-18T12:52:04;100107.13;;;15.99;30.66
64053;BME280;50299;49.524;8.536;2023-03-18T12:54:47;100102.63;;;15.91;29.77
64053;BME280;50299;49.524;8.536;2023-03-18T12:57:30;100102.50;;;16.64;31.57
64053;BME280;50299;49.524;8.536;2023-03-18T13:00:03;100098.78;;;17.20;29.59
64053;BME280;50299;49.524;8.536;2023-03-18T13:02:47;100101.34;;;16.38;29.03
64053;BME280;50299;49.524;8.536;2023-03-18T13:14:10;100090.78;;;17.18;35.67
64053;BME280;50299;49.524;8.536;2023-03-18T13:16:40;100090.72;;;17.52;29.08
64053;BME280;50299;49.524;8.536;2023-03-18T13:19:07;100080.09;;;16.90;30.73
64053;BME280;50299;49.524;8.536;2023-03-18T13:21:40;100083.50;;;17.10;30.79
64053;BME280;50299;49.524;8.536;2023-03-18T13:24:32;100082.75;;;17.13;31.50
64053;BME280;50299;49.524;8.536;2023-03-18T13:39:07;100084.13;;;15.79;30.15
64053;BME280;50299;49.524;8.536;2023-03-18T13:44:56;100070.03;;;17.57;29.67
64053;BME280;50299;49.524;8.536;2023-03-18T13:47:28;100075.97;;;17.51;28.21
64053;BME280;50299;49.524;8.536;2023-03-18T13:50:06;100078.44;;;17.57;27.86
64053;BME280;50299;49.524;8.536;2023-03-18T13:52:48;100077.31;;;17.27;31.54
64053;BME280;50299;49.524;8.536;2023-03-18T13:58:42;100080.00;;;16.53;29.42
64053;BME280;50299;49.524;8.536;2023-03-18T14:00:42;100078.25;;;16.38;31.21
64053;BME280;50299;49.524;8.536;2023-03-18T14:03:18;100072.03;;;16.21;30.63
64053;BME280;50299;49.524;8.536;2023-03-18T14:06:17;100065.81;;;15.33;29.96
64053;BME280;50299;49.524;8.536;2023-03-18T14:13:59;100065.44;;;16.97;31.48
64053;BME280;50299;49.524;8.536;2023-03-18T14:19:17;100067.41;;;16.96;30.34
64053;BME280;50299;49.524;8.536;2023-03-18T14:24:45;100061.06;;;17.85;28.57
64053;BME280;50299;49.524;8.536;2023-03-18T14:27:16;100057.66;;;18.09;33.20
64053;BME280;50299;49.524;8.536;2023-03-18T14:29:45;100057.81;;;18.31;33.58
64053;BME280;50299;49.524;8.536;2023-03-18T14:32:29;100062.41;;;18.78;32.36
64053;BME280;50299;49.524;8.536;2023-03-18T14:40:55;100049.13;;;18.57;29.43
64053;BME280;50299;49.524;8.536;2023-03-18T14:43:34;100053.94;;;17.94;27.00
64053;BME280;50299;49.524;8.536;2023-03-18T14:46:07;100055.53;;;17.92;27.11
64053;BME280;50299;49.524;8.536;2023-03-18T14:48:44;100052.16;;;18.23;30.19